sensor_id;sensor_type;location;lat;lon;timestamp;temperature;humidity
5128;DHT22;2582;48.770;9.190;2022-09-09T00:01:59;18.20;99.90
5128;DHT22;2582;48.770;9.190;2022-09-09T00:04:28;18.10;99.90
5128;DHT22;2582;48.770;9.190;2022-09-09T00:07:25;18.10;99.90
5128;DHT22;2582;48.770;9.190;2022-09-09T00:10:15;18.10;99.90
5128;DHT22;2582;48.770;9.190;2022-09-09T00:13:16;18.00;99.90
5128;DHT22;2582;48.770;9.190;2022-09-09T00:21:33;18.20;99.90
5128;DHT22;2582;48.770;9.190;2022-09-09T00:23:59;18.30;99.90
5128;DHT22;2582;48.770;9.190;2022-09-09T00:26:39;18.20;99.90
5128;DHT22;2582;48.770;9.190;2022-09-09T00:31:34;18.30;99.90
5128;DHT22;2582;48.770;9.190;2022-09-09T00:34:09;18.30;99.90
5128;DHT22;2582;48.770;9.190;2022-09-09T00:36:37;18.20;99.90
5128;DHT22;2582;48.770;9.190;2022-09-09T00:39:04;18.30;99.90
5128;DHT22;2582;48.770;9.190;2022-09-09T00:44:38;18.40;99.90
5128;DHT22;2582;48.770;9.190;2022-09-09T00:50:09;18.50;99.90
5128;DHT22;2582;48.770;9.190;2022-09-09T00:56:18;18.40;99.90
5128;DHT22;2582;48.770;9.190;2022-09-09T00:59:00;18.60;99.90
5128;DHT22;2582;48.770;9.190;2022-09-09T01:01:28;18.80;99.90
5128;DHT22;2582;48.770;9.190;2022-09-09T01:03:55;18.90;99.90
5128;DHT22;2582;48.770;9.190;2022-09-09T01:06:36;18.90;99.90
5128;DHT22;2582;48.770;9.190;2022-09-09T01:17:26;18.90;99.90
5128;DHT22;2582;48.770;9.190;2022-09-09T01:20:08;18.90;99.90
5128;DHT22;2582;48.770;9.190;2022-09-09T01:22:50;18.80;99.90
5128;DHT22;2582;48.770;9.190;2022-09-09T01:28:16;18.80;99.90
5128;DHT22;2582;48.770;9.190;2022-09-09T01:30:44;18.80;99.90
5128;DHT22;2582;48.770;9.190;2022-09-09T01:33:13;18.90;99.90
5128;DHT22;2582;48.770;9.190;2022-09-09T01:35:48;18.90;99.90
5128;DHT22;2582;48.770;9.190;2022-09-09T01:38:17;18.90;99.90
5128;DHT22;2582;48.770;9.190;2022-09-09T01:40:46;19.00;99.90
5128;DHT22;2582;48.770;9.190;2022-09-09T01:43:11;19.00;99.90
5128;DHT22;2582;48.770;9.190;2022-09-09T01:45:39;18.90;99.90
5128;DHT22;2582;48.770;9.190;2022-09-09T01:48:06;18.90;99.90
5128;DHT22;2582;48.770;9.190;2022-09-09T01:50:32;18.90;99.90
5128;DHT22;2582;48.770;9.190;2022-09-09T01:52:59;18.90;99.90
5128;DHT22;2582;48.770;9.190;2022-09-09T01:55:42;18.80;99.90
5128;DHT22;2582;48.770;9.190;2022-09-09T02:00:49;18.70;99.90
5128;DHT22;2582;48.770;9.190;2022-09-09T02:03:28;18.80;99.90
5128;DHT22;2582;48.770;9.190;2022-09-09T02:06:00;18.70;99.90
5128;DHT22;2582;48.770;9.190;2022-09-09T02:08:48;18.60;99.90
5128;DHT22;2582;48.770;9.190;2022-09-09T02:11:20;18.50;99.90
5128;DHT22;2582;48.770;9.190;2022-09-09T02:13:48;18.40;99.90
5128;DHT22;2582;48.770;9.190;2022-09-09T02:16:30;18.40;99.90
5128;DHT22;2582;48.770;9.190;2022-09-09T02:19:06;18.40;99.90
5128;DHT22;2582;48.770;9.190;2022-09-09T02:21:33;18.40;99.90
5128;DHT22;2582;48.770;9.190;2022-09-09T02:24:05;18.40;99.90
5128;DHT22;2582;48.770;9.190;2022-09-09T02:26:33;18.50;99.90
5128;DHT22;2582;48.770;9.190;2022-09-09T02:29:03;18.50;99.90
5128;DHT22;2582;48.770;9.190;2022-09-09T02:31:32;18.50;99.90
5128;DHT22;2582;48.770;9.190;2022-09-09T02:34:01;18.40;99.90
5128;DHT22;2582;48.770;9.190;2022-09-09T02:36:31;18.40;99.90
5128;DHT22;2582;48.770;9.190;2022-09-09T02:38:58;18.40;99.90
5128;DHT22;2582;48.770;9.190;2022-09-09T02:41:32;18.30;99.90
5128;DHT22;2582;48.770;9.190;2022-09-09T02:43:59;18.30;99.90
5128;DHT22;2582;48.770;9.190;2022-09-09T02:49:38;18.30;99.90
5128;DHT22;2582;48.770;9.190;2022-09-09T02:52:08;18.20;99.90
5128;DHT22;2582;48.770;9.190;2022-09-09T02:54:38;18.10;99.90
5128;DHT22;2582;48.770;9.190;2022-09-09T02:57:13;18.00;99.90
5128;DHT22;2582;48.770;9.190;2022-09-09T02:59:43;18.00;99.90
5128;DHT22;2582;48.770;9.190;2022-09-09T03:02:09;18.00;99.90
5128;DHT22;2582;48.770;9.190;2022-09-09T03:04:36;17.90;99.90
5128;DHT22;2582;48.770;9.190;2022-09-09T03:07:01;17.80;99.90
5128;DHT22;2582;48.770;9.190;2022-09-09T03:12:03;17.60;99.90
5128;DHT22;2582;48.770;9.190;2022-09-09T03:14:29;17.60;99.90
5128;DHT22;2582;48.770;9.190;2022-09-09T03:16:55;17.50;99.90
5128;DHT22;2582;48.770;9.190;2022-09-09T03:19:23;17.60;99.90
5128;DHT22;2582;48.770;9.190;2022-09-09T03:21:48;17.60;99.90
5128;DHT22;2582;48.770;9.190;2022-09-09T03:24:15;17.60;99.90
5128;DHT22;2582;48.770;9.190;2022-09-09T03:26:41;17.70;99.90
5128;DHT22;2582;48.770;9.190;2022-09-09T03:29:10;17.80;99.90
5128;DHT22;2582;48.770;9.190;2022-09-09T03:31:38;17.80;99.90
5128;DHT22;2582;48.770;9.190;2022-09-09T03:34:03;17.90;99.90
5128;DHT22;2582;48.770;9.190;2022-09-09T03:36:29;17.80;99.90
5128;DHT22;2582;48.770;9.190;2022-09-09T03:38:55;17.70;99.90
5128;DHT22;2582;48.770;9.190;2022-09-09T03:41:24;17.70;99.90
5128;DHT22;2582;48.770;9.190;2022-09-09T03:43:51;17.60;99.90
5128;DHT22;2582;48.770;9.190;2022-09-09T03:46:17;17.70;99.90
5128;DHT22;2582;48.770;9.190;2022-09-09T03:48:43;17.80;99.90
5128;DHT22;2582;48.770;9.190;2022-09-09T03:51:09;17.80;99.90
5128;DHT22;2582;48.770;9.190;2022-09-09T03:53:36;17.90;99.90
5128;DHT22;2582;48.770;9.190;2022-09-09T03:56:04;17.90;99.90
5128;DHT22;2582;48.770;9.190;2022-09-09T03:58:30;18.10;99.90
5128;DHT22;2582;48.770;9.190;2022-09-09T04:00:58;18.10;99.90
5128;DHT22;2582;48.770;9.190;2022-09-09T04:03:24;18.10;99.90
5128;DHT22;2582;48.770;9.190;2022-09-09T04:05:54;18.10;99.90
5128;DHT22;2582;48.770;9.190;2022-09-09T04:08:20;18.10;99.90
5128;DHT22;2582;48.770;9.190;2022-09-09T04:10:48;18.00;99.90
5128;DHT22;2582;48.770;9.190;2022-09-09T04:13:15;18.10;99.90
5128;DHT22;2582;48.770;9.190;2022-09-09T04:15:44;18.10;99.90
5128;DHT22;2582;48.770;9.190;2022-09-09T04:18:10;17.90;99.90
5128;DHT22;2582;48.770;9.190;2022-09-09T04:20:37;17.80;99.90
5128;DHT22;2582;48.770;9.190;2022-09-09T04:23:03;17.60;99.90
5128;DHT22;2582;48.770;9.190;2022-09-09T04:25:28;17.50;99.90
5128;DHT22;2582;48.770;9.190;2022-09-09T04:27:55;17.50;99.90
5128;DHT22;2582;48.770;9.190;2022-09-09T04:30:21;17.50;99.90
5128;DHT22;2582;48.770;9.190;2022-09-09T04:32:47;17.50;99.90
5128;DHT22;2582;48.770;9.190;2022-09-09T04:35:12;17.50;99.90
5128;DHT22;2582;48.770;9.190;2022-09-09T04:37:38;17.60;99.90
5128;DHT22;2582;48.770;9.190;2022-09-09T04:40:05;17.60;99.90
5128;DHT22;2582;48.770;9.190;2022-09-09T04:42:35;17.50;99.90
5128;DHT22;2582;48.770;9.190;2022-09-09T04:45:01;17.50;99.90
5128;DHT22;2582;48.770;9.190;2022-09-09T04:47:27;17.50;99.90
5128;DHT22;2582;48.770;9.190;2022-09-09T04:49:52;17.50;99.90
5128;DHT22;2582;48.770;9.190;2022-09-09T04:52:20;17.50;99.90
5128;DHT22;2582;48.770;9.190;2022-09-09T04:54:45;17.40;99.90
5128;DHT22;2582;48.770;9.190;2022-09-09T04:57:11;17.60;99.90
5128;DHT22;2582;48.770;9.190;2022-09-09T04:59:36;17.70;99.90
5128;DHT22;2582;48.770;9.190;2022-09-09T05:02:03;17.70;99.90
5128;DHT22;2582;48.770;9.190;2022-09-09T05:04:29;17.70;99.90
5128;DHT22;2582;48.770;9.190;2022-09-09T05:06:55;17.60;99.90
5128;DHT22;2582;48.770;9.190;2022-09-09T05:09:21;17.60;99.90
5128;DHT22;2582;48.770;9.190;2022-09-09T05:11:46;17.50;99.90
5128;DHT22;2582;48.770;9.190;2022-09-09T05:14:12;17.50;99.90
5128;DHT22;2582;48.770;9.190;2022-09-09T05:16:38;17.50;99.90
5128;DHT22;2582;48.770;9.190;2022-09-09T05:19:03;17.60;99.90
5128;DHT22;2582;48.770;9.190;2022-09-09T05:21:30;17.60;99.90
5128;DHT22;2582;48.770;9.190;2022-09-09T05:23:56;17.60;99.90
5128;DHT22;2582;48.770;9.190;2022-09-09T05:26:23;17.70;99.90
5128;DHT22;2582;48.770;9.190;2022-09-09T05:28:49;17.80;99.90
5128;DHT22;2582;48.770;9.190;2022-09-09T05:31:16;17.80;99.90
5128;DHT22;2582;48.770;9.190;2022-09-09T05:33:44;17.90;99.90
5128;DHT22;2582;48.770;9.190;2022-09-09T05:36:14;18.00;99.90
5128;DHT22;2582;48.770;9.190;2022-09-09T05:38:40;18.10;99.90
5128;DHT22;2582;48.770;9.190;2022-09-09T05:41:06;18.10;99.90
5128;DHT22;2582;48.770;9.190;2022-09-09T05:43:33;18.20;99.90
5128;DHT22;2582;48.770;9.190;2022-09-09T05:46:09;18.40;99.90
5128;DHT22;2582;48.770;9.190;2022-09-09T05:48:37;18.30;99.90
5128;DHT22;2582;48.770;9.190;2022-09-09T05:51:04;18.30;99.90
5128;DHT22;2582;48.770;9.190;2022-09-09T05:53:32;18.30;99.90
5128;DHT22;2582;48.770;9.190;2022-09-09T05:56:07;18.30;99.90
5128;DHT22;2582;48.770;9.190;2022-09-09T05:58:36;18.40;99.90
5128;DHT22;2582;48.770;9.190;2022-09-09T06:01:04;18.50;99.90
5128;DHT22;2582;48.770;9.190;2022-09-09T06:03:30;18.60;99.90
5128;DHT22;2582;48.770;9.190;2022-09-09T06:06:00;18.60;99.90
5128;DHT22;2582;48.770;9.190;2022-09-09T06:08:26;18.80;99.90
5128;DHT22;2582;48.770;9.190;2022-09-09T06:10:51;18.90;99.90
5128;DHT22;2582;48.770;9.190;2022-09-09T06:13:17;18.90;99.90
5128;DHT22;2582;48.770;9.190;2022-09-09T06:15:52;19.00;99.90
5128;DHT22;2582;48.770;9.190;2022-09-09T06:18:18;19.00;99.90
5128;DHT22;2582;48.770;9.190;2022-09-09T06:20:57;19.00;99.90
5128;DHT22;2582;48.770;9.190;2022-09-09T06:23:24;19.00;99.90
5128;DHT22;2582;48.770;9.190;2022-09-09T06:25:50;19.10;99.90
5128;DHT22;2582;48.770;9.190;2022-09-09T06:28:17;19.20;99.90
5128;DHT22;2582;48.770;9.190;2022-09-09T06:30:42;19.20;99.90
5128;DHT22;2582;48.770;9.190;2022-09-09T06:33:08;19.40;99.90
5128;DHT22;2582;48.770;9.190;2022-09-09T06:35:34;19.30;99.90
5128;DHT22;2582;48.770;9.190;2022-09-09T06:38:00;19.40;99.90
5128;DHT22;2582;48.770;9.190;2022-09-09T06:40:26;19.40;99.90
5128;DHT22;2582;48.770;9.190;2022-09-09T06:42:51;19.20;99.90
5128;DHT22;2582;48.770;9.190;2022-09-09T06:45:17;19.30;99.90
5128;DHT22;2582;48.770;9.190;2022-09-09T06:47:43;19.40;99.90
5128;DHT22;2582;48.770;9.190;2022-09-09T06:50:09;19.50;99.90
5128;DHT22;2582;48.770;9.190;2022-09-09T06:52:35;19.50;99.90
5128;DHT22;2582;48.770;9.190;2022-09-09T06:55:01;19.40;99.90
5128;DHT22;2582;48.770;9.190;2022-09-09T06:57:28;19.40;99.90
5128;DHT22;2582;48.770;9.190;2022-09-09T06:59:53;19.50;99.90
5128;DHT22;2582;48.770;9.190;2022-09-09T07:02:19;19.50;99.90
5128;DHT22;2582;48.770;9.190;2022-09-09T07:04:44;19.50;99.90
5128;DHT22;2582;48.770;9.190;2022-09-09T07:07:10;19.80;99.90
5128;DHT22;2582;48.770;9.190;2022-09-09T07:09:37;19.70;99.90
5128;DHT22;2582;48.770;9.190;2022-09-09T07:12:03;19.90;99.90
5128;DHT22;2582;48.770;9.190;2022-09-09T07:14:31;19.90;99.90
5128;DHT22;2582;48.770;9.190;2022-09-09T07:16:57;20.10;99.90
5128;DHT22;2582;48.770;9.190;2022-09-09T07:19:23;20.30;99.90
5128;DHT22;2582;48.770;9.190;2022-09-09T07:21:48;20.40;99.90
5128;DHT22;2582;48.770;9.190;2022-09-09T07:24:14;20.30;99.90
5128;DHT22;2582;48.770;9.190;2022-09-09T07:26:41;20.20;99.90
5128;DHT22;2582;48.770;9.190;2022-09-09T07:29:07;20.40;99.90
5128;DHT22;2582;48.770;9.190;2022-09-09T07:31:36;20.50;99.90
5128;DHT22;2582;48.770;9.190;2022-09-09T07:34:03;20.30;99.90
5128;DHT22;2582;48.770;9.190;2022-09-09T07:36:33;20.30;99.90
5128;DHT22;2582;48.770;9.190;2022-09-09T07:39:02;20.30;99.90
5128;DHT22;2582;48.770;9.190;2022-09-09T07:41:51;20.30;99.90
5128;DHT22;2582;48.770;9.190;2022-09-09T07:44:20;20.10;99.90
5128;DHT22;2582;48.770;9.190;2022-09-09T07:46:50;20.40;99.90
5128;DHT22;2582;48.770;9.190;2022-09-09T07:49:16;20.70;99.90
5128;DHT22;2582;48.770;9.190;2022-09-09T07:51:45;20.80;99.90
5128;DHT22;2582;48.770;9.190;2022-09-09T07:54:13;20.70;99.90
5128;DHT22;2582;48.770;9.190;2022-09-09T07:56:39;20.50;99.90
5128;DHT22;2582;48.770;9.190;2022-09-09T07:59:06;20.30;99.90
5128;DHT22;2582;48.770;9.190;2022-09-09T08:01:35;20.30;99.90
5128;DHT22;2582;48.770;9.190;2022-09-09T08:04:06;20.50;99.90
5128;DHT22;2582;48.770;9.190;2022-09-09T08:06:36;20.80;99.90
5128;DHT22;2582;48.770;9.190;2022-09-09T08:09:03;21.00;99.90
5128;DHT22;2582;48.770;9.190;2022-09-09T08:11:29;21.20;99.90
5128;DHT22;2582;48.770;9.190;2022-09-09T08:13:56;21.00;99.90
5128;DHT22;2582;48.770;9.190;2022-09-09T08:16:24;20.90;99.90
5128;DHT22;2582;48.770;9.190;2022-09-09T08:18:51;20.80;99.90
5128;DHT22;2582;48.770;9.190;2022-09-09T08:21:19;20.80;99.90
5128;DHT22;2582;48.770;9.190;2022-09-09T08:23:46;20.60;99.90
5128;DHT22;2582;48.770;9.190;2022-09-09T08:26:16;20.60;99.90
5128;DHT22;2582;48.770;9.190;2022-09-09T08:28:43;20.70;99.90
5128;DHT22;2582;48.770;9.190;2022-09-09T08:31:14;20.90;99.90
5128;DHT22;2582;48.770;9.190;2022-09-09T08:33:41;20.90;99.90
5128;DHT22;2582;48.770;9.190;2022-09-09T08:36:10;20.90;99.90
5128;DHT22;2582;48.770;9.190;2022-09-09T08:38:37;20.90;99.90
5128;DHT22;2582;48.770;9.190;2022-09-09T08:41:29;20.90;99.90
5128;DHT22;2582;48.770;9.190;2022-09-09T08:44:31;21.20;99.90
5128;DHT22;2582;48.770;9.190;2022-09-09T08:50:05;21.50;99.90
5128;DHT22;2582;48.770;9.190;2022-09-09T08:55:37;21.80;99.90
5128;DHT22;2582;48.770;9.190;2022-09-09T09:09:01;22.00;99.90
5128;DHT22;2582;48.770;9.190;2022-09-09T09:11:26;22.10;99.90
5128;DHT22;2582;48.770;9.190;2022-09-09T09:14:03;22.00;99.90
5128;DHT22;2582;48.770;9.190;2022-09-09T09:16:38;21.90;99.90
5128;DHT22;2582;48.770;9.190;2022-09-09T09:19:05;21.90;99.90
5128;DHT22;2582;48.770;9.190;2022-09-09T09:24:09;21.60;99.90
5128;DHT22;2582;48.770;9.190;2022-09-09T09:26:37;21.60;99.90
5128;DHT22;2582;48.770;9.190;2022-09-09T09:29:17;21.40;99.90
5128;DHT22;2582;48.770;9.190;2022-09-09T09:31:58;21.50;99.90
5128;DHT22;2582;48.770;9.190;2022-09-09T09:34:24;21.50;99.90
5128;DHT22;2582;48.770;9.190;2022-09-09T09:36:55;21.00;99.90
5128;DHT22;2582;48.770;9.190;2022-09-09T09:39:33;20.40;99.90
5128;DHT22;2582;48.770;9.190;2022-09-09T09:42:14;20.10;99.90
5128;DHT22;2582;48.770;9.190;2022-09-09T09:44:41;20.20;99.90
5128;DHT22;2582;48.770;9.190;2022-09-09T09:47:15;20.30;99.90
5128;DHT22;2582;48.770;9.190;2022-09-09T09:49:57;20.40;99.90
5128;DHT22;2582;48.770;9.190;2022-09-09T09:52:26;20.40;99.90
5128;DHT22;2582;48.770;9.190;2022-09-09T09:54:54;20.60;99.90
5128;DHT22;2582;48.770;9.190;2022-09-09T09:57:25;20.60;99.90
5128;DHT22;2582;48.770;9.190;2022-09-09T10:00:25;20.70;99.90
5128;DHT22;2582;48.770;9.190;2022-09-09T10:02:51;20.70;99.90
5128;DHT22;2582;48.770;9.190;2022-09-09T10:05:25;20.90;99.90
5128;DHT22;2582;48.770;9.190;2022-09-09T10:08:13;21.00;99.90
5128;DHT22;2582;48.770;9.190;2022-09-09T10:14:08;21.20;99.90
5128;DHT22;2582;48.770;9.190;2022-09-09T10:19:07;21.70;99.90
5128;DHT22;2582;48.770;9.190;2022-09-09T10:38:30;22.80;99.90
5128;DHT22;2582;48.770;9.190;2022-09-09T10:41:21;22.90;99.90
5128;DHT22;2582;48.770;9.190;2022-09-09T10:54:49;23.40;99.90
5128;DHT22;2582;48.770;9.190;2022-09-09T11:03:21;24.50;99.90
5128;DHT22;2582;48.770;9.190;2022-09-09T11:08:26;27.40;97.30
5128;DHT22;2582;48.770;9.190;2022-09-09T11:13:55;27.20;97.30
5128;DHT22;2582;48.770;9.190;2022-09-09T11:18:57;25.90;98.90
5128;DHT22;2582;48.770;9.190;2022-09-09T11:21:29;26.20;96.30
5128;DHT22;2582;48.770;9.190;2022-09-09T11:26:58;24.10;96.30
5128;DHT22;2582;48.770;9.190;2022-09-09T11:29:44;23.50;96.80
5128;DHT22;2582;48.770;9.190;2022-09-09T11:35:27;22.40;96.80
5128;DHT22;2582;48.770;9.190;2022-09-09T11:38:19;22.00;97.30
5128;DHT22;2582;48.770;9.190;2022-09-09T11:40:47;22.10;97.80
5128;DHT22;2582;48.770;9.190;2022-09-09T11:43:31;22.30;98.10
5128;DHT22;2582;48.770;9.190;2022-09-09T11:46:01;22.30;98.70
5128;DHT22;2582;48.770;9.190;2022-09-09T11:48:36;22.20;98.10
5128;DHT22;2582;48.770;9.190;2022-09-09T11:51:04;22.00;98.60
5128;DHT22;2582;48.770;9.190;2022-09-09T11:53:31;21.60;98.40
5128;DHT22;2582;48.770;9.190;2022-09-09T11:56:09;21.50;99.00
5128;DHT22;2582;48.770;9.190;2022-09-09T11:58:39;21.70;99.20
5128;DHT22;2582;48.770;9.190;2022-09-09T12:01:26;21.80;99.10
5128;DHT22;2582;48.770;9.190;2022-09-09T12:04:26;21.90;99.20
5128;DHT22;2582;48.770;9.190;2022-09-09T12:06:54;22.90;97.50
5128;DHT22;2582;48.770;9.190;2022-09-09T12:09:59;23.70;96.30
5128;DHT22;2582;48.770;9.190;2022-09-09T12:12:28;25.10;94.20
5128;DHT22;2582;48.770;9.190;2022-09-09T12:17:30;24.20;94.40
5128;DHT22;2582;48.770;9.190;2022-09-09T12:25:48;24.40;95.00
5128;DHT22;2582;48.770;9.190;2022-09-09T12:28:25;26.50;91.90
5128;DHT22;2582;48.770;9.190;2022-09-09T12:33:43;28.70;84.40
5128;DHT22;2582;48.770;9.190;2022-09-09T12:36:30;29.30;78.50
5128;DHT22;2582;48.770;9.190;2022-09-09T12:39:08;28.70;75.30
5128;DHT22;2582;48.770;9.190;2022-09-09T12:41:36;29.50;76.20
5128;DHT22;2582;48.770;9.190;2022-09-09T12:44:06;29.30;69.90
5128;DHT22;2582;48.770;9.190;2022-09-09T12:46:33;29.60;70.60
5128;DHT22;2582;48.770;9.190;2022-09-09T12:49:02;28.90;71.70
5128;DHT22;2582;48.770;9.190;2022-09-09T12:51:32;28.30;74.70
5128;DHT22;2582;48.770;9.190;2022-09-09T12:53:59;26.70;76.90
5128;DHT22;2582;48.770;9.190;2022-09-09T12:56:32;26.00;80.00
5128;DHT22;2582;48.770;9.190;2022-09-09T12:58:58;25.90;81.70
5128;DHT22;2582;48.770;9.190;2022-09-09T13:01:27;25.50;85.10
5128;DHT22;2582;48.770;9.190;2022-09-09T13:03:54;25.70;86.20
5128;DHT22;2582;48.770;9.190;2022-09-09T13:06:28;26.00;83.20
5128;DHT22;2582;48.770;9.190;2022-09-09T13:08:56;27.40;80.10
5128;DHT22;2582;48.770;9.190;2022-09-09T13:11:37;26.80;80.30
5128;DHT22;2582;48.770;9.190;2022-09-09T13:14:04;26.30;81.80
5128;DHT22;2582;48.770;9.190;2022-09-09T13:16:35;26.00;81.90
5128;DHT22;2582;48.770;9.190;2022-09-09T13:19:08;25.60;82.10
5128;DHT22;2582;48.770;9.190;2022-09-09T13:21:35;25.70;84.30
5128;DHT22;2582;48.770;9.190;2022-09-09T13:24:05;26.50;82.60
5128;DHT22;2582;48.770;9.190;2022-09-09T13:26:33;27.00;79.40
5128;DHT22;2582;48.770;9.190;2022-09-09T13:29:18;26.90;80.30
5128;DHT22;2582;48.770;9.190;2022-09-09T13:31:45;27.80;79.20
5128;DHT22;2582;48.770;9.190;2022-09-09T13:34:25;27.90;78.00
5128;DHT22;2582;48.770;9.190;2022-09-09T13:37:02;27.20;80.30
5128;DHT22;2582;48.770;9.190;2022-09-09T13:39:32;29.20;76.40
5128;DHT22;2582;48.770;9.190;2022-09-09T13:41:58;30.60;69.50
5128;DHT22;2582;48.770;9.190;2022-09-09T13:44:30;31.60;66.00
5128;DHT22;2582;48.770;9.190;2022-09-09T13:47:18;31.70;63.80
5128;DHT22;2582;48.770;9.190;2022-09-09T13:49:45;29.50;65.20
5128;DHT22;2582;48.770;9.190;2022-09-09T13:52:16;29.10;67.90
5128;DHT22;2582;48.770;9.190;2022-09-09T13:54:51;29.80;65.90
5128;DHT22;2582;48.770;9.190;2022-09-09T13:57:22;29.10;67.20
5128;DHT22;2582;48.770;9.190;2022-09-09T13:59:49;28.80;69.10
5128;DHT22;2582;48.770;9.190;2022-09-09T14:02:16;28.70;70.00
5128;DHT22;2582;48.770;9.190;2022-09-09T14:04:42;29.80;67.00
5128;DHT22;2582;48.770;9.190;2022-09-09T14:07:15;30.00;64.90
5128;DHT22;2582;48.770;9.190;2022-09-09T14:09:41;30.20;64.90
5128;DHT22;2582;48.770;9.190;2022-09-09T14:12:14;30.70;63.70
5128;DHT22;2582;48.770;9.190;2022-09-09T14:14:41;32.30;60.10
5128;DHT22;2582;48.770;9.190;2022-09-09T14:17:08;32.40;61.60
5128;DHT22;2582;48.770;9.190;2022-09-09T14:19:33;32.80;57.90
5128;DHT22;2582;48.770;9.190;2022-09-09T14:21:59;34.20;55.50
5128;DHT22;2582;48.770;9.190;2022-09-09T14:24:25;32.90;57.00
5128;DHT22;2582;48.770;9.190;2022-09-09T14:26:50;33.50;55.40
5128;DHT22;2582;48.770;9.190;2022-09-09T14:29:16;32.90;55.10
5128;DHT22;2582;48.770;9.190;2022-09-09T14:31:41;30.20;58.90
5128;DHT22;2582;48.770;9.190;2022-09-09T14:34:07;28.60;62.40
5128;DHT22;2582;48.770;9.190;2022-09-09T14:36:33;28.10;63.10
5128;DHT22;2582;48.770;9.190;2022-09-09T14:38:58;28.40;64.50
5128;DHT22;2582;48.770;9.190;2022-09-09T14:41:24;28.40;64.00
5128;DHT22;2582;48.770;9.190;2022-09-09T14:43:51;28.20;63.30
5128;DHT22;2582;48.770;9.190;2022-09-09T14:46:26;27.80;63.70
5128;DHT22;2582;48.770;9.190;2022-09-09T14:48:52;27.30;64.90
5128;DHT22;2582;48.770;9.190;2022-09-09T14:51:23;28.60;66.30
5128;DHT22;2582;48.770;9.190;2022-09-09T14:53:52;30.80;60.50
5128;DHT22;2582;48.770;9.190;2022-09-09T14:56:23;31.80;57.60
5128;DHT22;2582;48.770;9.190;2022-09-09T14:58:49;30.90;56.80
5128;DHT22;2582;48.770;9.190;2022-09-09T15:01:17;29.80;59.90
5128;DHT22;2582;48.770;9.190;2022-09-09T15:03:50;28.10;61.60
5128;DHT22;2582;48.770;9.190;2022-09-09T15:06:16;28.10;63.50
5128;DHT22;2582;48.770;9.190;2022-09-09T15:08:43;29.60;59.40
5128;DHT22;2582;48.770;9.190;2022-09-09T15:13:42;28.50;60.90
5128;DHT22;2582;48.770;9.190;2022-09-09T15:16:17;28.00;61.90
5128;DHT22;2582;48.770;9.190;2022-09-09T15:18:43;27.30;63.80
5128;DHT22;2582;48.770;9.190;2022-09-09T15:21:15;26.70;64.70
5128;DHT22;2582;48.770;9.190;2022-09-09T15:23:42;26.30;66.40
5128;DHT22;2582;48.770;9.190;2022-09-09T15:26:09;26.00;67.80
5128;DHT22;2582;48.770;9.190;2022-09-09T15:28:36;25.70;68.30
5128;DHT22;2582;48.770;9.190;2022-09-09T15:31:09;25.50;69.00
5128;DHT22;2582;48.770;9.190;2022-09-09T15:33:35;25.40;69.50
5128;DHT22;2582;48.770;9.190;2022-09-09T15:36:24;25.20;69.60
5128;DHT22;2582;48.770;9.190;2022-09-09T15:38:50;25.20;71.30
5128;DHT22;2582;48.770;9.190;2022-09-09T15:41:18;25.30;72.10
5128;DHT22;2582;48.770;9.190;2022-09-09T15:43:55;25.50;70.20
5128;DHT22;2582;48.770;9.190;2022-09-09T15:46:27;25.10;70.80
5128;DHT22;2582;48.770;9.190;2022-09-09T15:48:55;25.00;72.20
5128;DHT22;2582;48.770;9.190;2022-09-09T15:51:22;24.50;72.20
5128;DHT22;2582;48.770;9.190;2022-09-09T15:53:51;24.00;74.30
5128;DHT22;2582;48.770;9.190;2022-09-09T15:56:18;23.70;74.20
5128;DHT22;2582;48.770;9.190;2022-09-09T15:58:44;24.00;75.10
5128;DHT22;2582;48.770;9.190;2022-09-09T16:01:10;23.70;73.40
5128;DHT22;2582;48.770;9.190;2022-09-09T16:03:39;23.50;74.60
5128;DHT22;2582;48.770;9.190;2022-09-09T16:06:06;23.60;74.20
5128;DHT22;2582;48.770;9.190;2022-09-09T16:08:37;23.50;73.90
5128;DHT22;2582;48.770;9.190;2022-09-09T16:11:12;23.70;74.40
5128;DHT22;2582;48.770;9.190;2022-09-09T16:13:41;23.80;74.70
5128;DHT22;2582;48.770;9.190;2022-09-09T16:16:12;23.50;74.30
5128;DHT22;2582;48.770;9.190;2022-09-09T16:18:43;23.30;74.20
5128;DHT22;2582;48.770;9.190;2022-09-09T16:21:16;23.10;75.30
5128;DHT22;2582;48.770;9.190;2022-09-09T16:23:42;23.10;75.70
5128;DHT22;2582;48.770;9.190;2022-09-09T16:26:11;22.90;75.80
5128;DHT22;2582;48.770;9.190;2022-09-09T16:28:37;23.00;76.40
5128;DHT22;2582;48.770;9.190;2022-09-09T16:31:10;23.10;76.40
5128;DHT22;2582;48.770;9.190;2022-09-09T16:33:37;23.20;77.20
5128;DHT22;2582;48.770;9.190;2022-09-09T16:36:11;23.00;77.90
5128;DHT22;2582;48.770;9.190;2022-09-09T16:38:38;22.90;78.30
5128;DHT22;2582;48.770;9.190;2022-09-09T16:41:06;22.90;78.90
5128;DHT22;2582;48.770;9.190;2022-09-09T16:43:35;22.70;80.40
5128;DHT22;2582;48.770;9.190;2022-09-09T16:46:02;22.40;82.50
5128;DHT22;2582;48.770;9.190;2022-09-09T16:48:31;22.20;83.80
5128;DHT22;2582;48.770;9.190;2022-09-09T16:51:06;22.10;85.00
5128;DHT22;2582;48.770;9.190;2022-09-09T16:53:33;21.80;85.50
5128;DHT22;2582;48.770;9.190;2022-09-09T16:56:05;21.60;84.80
5128;DHT22;2582;48.770;9.190;2022-09-09T16:58:32;21.60;85.60
5128;DHT22;2582;48.770;9.190;2022-09-09T17:00:58;21.40;86.20
5128;DHT22;2582;48.770;9.190;2022-09-09T17:03:24;21.50;86.50
5128;DHT22;2582;48.770;9.190;2022-09-09T17:05:49;21.30;86.40
5128;DHT22;2582;48.770;9.190;2022-09-09T17:08:16;21.20;87.40
5128;DHT22;2582;48.770;9.190;2022-09-09T17:10:42;21.20;86.80
5128;DHT22;2582;48.770;9.190;2022-09-09T17:13:08;21.20;87.30
5128;DHT22;2582;48.770;9.190;2022-09-09T17:15:33;21.10;87.90
5128;DHT22;2582;48.770;9.190;2022-09-09T17:18:03;21.10;88.80
5128;DHT22;2582;48.770;9.190;2022-09-09T17:20:29;21.00;89.40
5128;DHT22;2582;48.770;9.190;2022-09-09T17:22:55;20.80;90.30
5128;DHT22;2582;48.770;9.190;2022-09-09T17:25:20;20.80;90.40
5128;DHT22;2582;48.770;9.190;2022-09-09T17:27:47;20.80;90.80
5128;DHT22;2582;48.770;9.190;2022-09-09T17:30:13;20.80;91.10
5128;DHT22;2582;48.770;9.190;2022-09-09T17:32:38;20.80;91.60
5128;DHT22;2582;48.770;9.190;2022-09-09T17:35:04;20.80;91.80
5128;DHT22;2582;48.770;9.190;2022-09-09T17:37:31;20.80;91.90
5128;DHT22;2582;48.770;9.190;2022-09-09T17:39:56;20.80;92.50
5128;DHT22;2582;48.770;9.190;2022-09-09T17:42:23;20.90;92.90
5128;DHT22;2582;48.770;9.190;2022-09-09T17:44:48;20.80;92.90
5128;DHT22;2582;48.770;9.190;2022-09-09T17:47:14;20.70;93.20
5128;DHT22;2582;48.770;9.190;2022-09-09T17:49:39;20.80;93.40
5128;DHT22;2582;48.770;9.190;2022-09-09T17:52:11;20.90;93.60
5128;DHT22;2582;48.770;9.190;2022-09-09T17:54:37;20.80;94.00
5128;DHT22;2582;48.770;9.190;2022-09-09T17:57:03;20.80;94.20
5128;DHT22;2582;48.770;9.190;2022-09-09T17:59:28;20.60;94.40
5128;DHT22;2582;48.770;9.190;2022-09-09T18:01:55;20.50;94.90
5128;DHT22;2582;48.770;9.190;2022-09-09T18:04:22;20.40;95.30
5128;DHT22;2582;48.770;9.190;2022-09-09T18:06:49;20.40;95.70
5128;DHT22;2582;48.770;9.190;2022-09-09T18:09:18;20.50;96.00
5128;DHT22;2582;48.770;9.190;2022-09-09T18:11:47;20.60;96.40
5128;DHT22;2582;48.770;9.190;2022-09-09T18:14:16;20.70;96.70
5128;DHT22;2582;48.770;9.190;2022-09-09T18:16:43;20.80;96.80
5128;DHT22;2582;48.770;9.190;2022-09-09T18:19:11;20.80;96.90
5128;DHT22;2582;48.770;9.190;2022-09-09T18:21:42;20.70;97.00
5128;DHT22;2582;48.770;9.190;2022-09-09T18:24:10;20.60;97.70